Time;durP1;ratioP1;P1;durP2;ratioP2;P2;SDS_P1;SDS_P2;PMS_P1;PMS_P2;Temp;Humidity;BMP_temperature;BMP_pressure;BME280_temperature;BME280_humidity;BME280_pressure;Samples;Min_cycle;Max_cycle;Signal;HPM_P1;HPM_P2
2023/04/10 00:01:37;;;;;;;3.93;3.63;;;17.50;58.90;18.40;101402.00;;;;5009757;28;20172;-58
2023/04/10 00:04:03;;;;;;;4.30;4.00;;;17.50;58.90;18.30;101394.00;;;;5009646;28;20175;-59
2023/04/10 00:06:30;;;;;;;4.27;3.87;;;17.40;58.80;18.40;101399.00;;;;5009942;28;20185;-58
2023/04/10 00:08:56;;;;;;;4.33;4.03;;;17.40;58.80;18.30;101400.00;;;;5009710;28;20189;-60
2023/04/10 00:11:23;;;;;;;4.67;4.27;;;17.40;58.80;18.30;101401.00;;;;5009488;28;20529;-58
2023/04/10 00:13:52;;;;;;;3.93;3.63;;;17.40;58.90;18.30;101392.00;;;;5007865;28;20234;-57
2023/04/10 00:16:17;;;;;;;4.03;3.73;;;17.40;58.80;18.30;101383.00;;;;5008257;28;20174;-60
2023/04/10 00:18:43;;;;;;;4.20;3.90;;;17.30;58.90;18.30;101371.00;;;;5009463;28;20645;-57
2023/04/10 00:21:09;;;;;;;4.37;3.97;;;17.30;58.90;18.30;101376.00;;;;5009840;28;20259;-58
2023/04/10 00:23:35;;;;;;;4.20;3.90;;;17.30;58.90;18.30;101375.00;;;;5010098;28;20175;-57
2023/04/10 00:26:01;;;;;;;4.10;3.80;;;17.30;58.90;18.20;101380.00;;;;5011069;28;20223;-58
2023/04/10 00:28:27;;;;;;;4.27;3.97;;;17.30;58.90;18.20;101379.00;;;;5011804;28;20204;-60
2023/04/10 00:30:52;;;;;;;4.00;3.70;;;17.30;59.00;18.20;101374.00;;;;5014275;28;20264;-60
2023/04/10 00:33:18;;;;;;;4.03;3.73;;;17.30;59.00;18.20;101376.00;;;;5009151;28;20204;-56
2023/04/10 00:35:44;;;;;;;4.20;3.90;;;17.20;58.90;18.10;101371.00;;;;5008983;28;20570;-57
2023/04/10 00:38:10;;;;;;;4.27;3.97;;;17.20;59.00;18.10;101370.00;;;;5011030;28;20179;-57
2023/04/10 00:40:36;;;;;;;4.40;4.10;;;17.20;59.00;18.10;101372.00;;;;5010879;28;20190;-57
2023/04/10 00:43:02;;;;;;;4.20;3.90;;;17.20;58.90;17.90;101367.00;;;;5008994;28;20173;-57
2023/04/10 00:45:27;;;;;;;3.93;3.63;;;17.20;58.90;18.10;101366.00;;;;5008965;28;20201;-61
2023/04/10 00:47:54;;;;;;;4.07;3.77;;;17.20;59.00;18.10;101356.00;;;;5008723;28;20607;-59
2023/04/10 00:50:20;;;;;;;4.00;3.70;;;17.20;58.90;18.10;101362.00;;;;5007287;28;20636;-57
2023/04/10 00:52:47;;;;;;;4.20;3.90;;;17.20;59.00;18.10;101346.00;;;;5008387;28;20200;-58
2023/04/10 00:55:13;;;;;;;4.03;3.73;;;17.20;58.90;18.10;101345.00;;;;5007401;28;20226;-57
2023/04/10 00:57:38;;;;;;;4.20;3.90;;;17.10;58.90;18.10;101350.00;;;;5007464;28;20181;-58
2023/04/10 01:00:05;;;;;;;4.20;3.90;;;17.20;59.00;18.10;101352.00;;;;5007443;28;20183;-59
2023/04/10 01:02:31;;;;;;;4.30;4.00;;;17.20;59.00;18.10;101337.00;;;;5008872;28;20208;-56
2023/04/10 01:04:57;;;;;;;3.80;3.50;;;17.10;58.80;18.10;101338.00;;;;5008592;28;20230;-57
2023/04/10 01:07:53;;;;;;;4.00;3.70;;;17.10;58.80;18.10;101326.00;;;;5007262;28;20176;-58
2023/04/10 01:10:46;;;;;;;3.83;3.53;;;17.10;58.80;18.10;101345.00;;;;4992434;28;20259;-57
2023/04/10 01:13:24;;;;;;;4.17;3.87;;;17.10;58.80;18.00;101326.00;;;;5006912;28;20226;-57
2023/04/10 01:16:17;;;;;;;3.80;3.50;;;17.10;58.80;18.00;101340.00;;;;4975384;28;20289;-59
2023/04/10 01:19:46;;;;;;;3.90;3.60;;;17.10;58.90;18.00;101337.00;;;;4992401;28;20640;-59
2023/04/10 01:22:12;;;;;;;4.10;3.80;;;17.10;58.80;18.00;101337.00;;;;4994391;28;20190;-58
2023/04/10 01:25:01;;;;;;;3.80;3.50;;;17.10;58.80;17.90;101335.00;;;;4990677;28;20197;-59
2023/04/10 01:28:08;;;;;;;3.90;3.60;;;17.00;58.70;17.90;101322.00;;;;5015735;28;20177;-57
2023/04/10 01:30:34;;;;;;;4.03;3.73;;;17.00;58.70;17.90;101312.00;;;;5020028;28;20171;-58
2023/04/10 01:33:00;;;;;;;4.17;3.87;;;17.00;58.70;17.90;101310.00;;;;5010156;28;20199;-60
2023/04/10 01:35:28;;;;;;;4.07;3.77;;;17.00;58.80;17.90;101310.00;;;;4992475;28;20253;-59
2023/04/10 01:37:53;;;;;;;4.20;3.90;;;17.00;58.80;17.90;101282.00;;;;5010941;28;20180;-56
2023/04/10 01:40:19;;;;;;;4.13;3.83;;;16.90;58.70;17.80;101309.00;;;;4996236;28;20178;-58
2023/04/10 01:42:51;;;;;;;3.97;3.67;;;16.90;58.80;17.80;101304.00;;;;5029846;28;20176;-59
2023/04/10 01:45:20;;;;;;;3.90;3.60;;;16.90;58.80;17.80;101299.00;;;;5003189;28;20203;-59
2023/04/10 01:47:46;;;;;;;4.00;3.70;;;16.90;58.80;17.80;101307.00;;;;5011215;28;20208;-59
2023/04/10 01:50:11;;;;;;;4.00;3.70;;;16.90;58.80;17.80;101289.00;;;;5011323;28;20178;-59
2023/04/10 01:52:37;;;;;;;3.90;3.60;;;16.90;58.80;17.80;101292.00;;;;4994461;28;20285;-59
2023/04/10 01:55:03;;;;;;;3.83;3.53;;;16.80;58.80;17.70;101276.00;;;;4994386;28;20196;-58
2023/04/10 01:57:30;;;;;;;3.80;3.50;;;16.90;58.90;17.70;101297.00;;;;4994731;28;20181;-59
2023/04/10 01:59:57;;;;;;;3.90;3.60;;;16.80;58.80;17.70;101285.00;;;;5010763;28;20187;-61
2023/04/10 02:02:22;;;;;;;3.87;3.57;;;16.80;58.90;17.70;101291.00;;;;5011849;28;20665;-59
2023/04/10 02:04:50;;;;;;;3.73;3.43;;;16.80;58.90;17.60;101283.00;;;;5011522;28;20198;-59
2023/04/10 02:07:38;;;;;;;3.50;3.30;;;16.80;58.90;17.60;101280.00;;;;5010608;28;20222;-58
2023/04/10 02:10:18;;;;;;;3.70;3.40;;;16.70;58.80;17.60;101275.00;;;;4994908;28;20208;-58
2023/04/10 02:12:52;;;;;;;3.83;3.53;;;16.80;59.00;17.60;101272.00;;;;5011569;28;20203;-59
2023/04/10 02:15:22;;;;;;;3.80;3.50;;;16.70;58.90;17.60;101274.00;;;;5010962;28;20615;-59
2023/04/10 02:17:48;;;;;;;4.03;3.73;;;16.80;59.10;17.50;101278.00;;;;4994300;28;20203;-58
2023/04/10 02:20:13;;;;;;;4.00;3.70;;;16.70;58.90;17.50;101268.00;;;;4993812;28;20670;-58
2023/04/10 02:22:42;;;;;;;4.00;3.70;;;16.70;59.00;17.50;101256.00;;;;5009874;28;20183;-58
2023/04/10 02:25:09;;;;;;;4.07;3.77;;;16.70;59.00;17.50;101270.00;;;;4993838;28;20306;-58
2023/04/10 02:27:35;;;;;;;3.70;3.40;;;16.60;58.90;17.50;101262.00;;;;5011593;28;20595;-57
2023/04/10 02:30:05;;;;;;;3.90;3.60;;;16.60;58.90;17.50;101269.00;;;;4994044;28;20187;-57
2023/04/10 02:32:32;;;;;;;3.73;3.43;;;16.60;58.90;17.50;101260.00;;;;5009855;28;20207;-59
2023/04/10 02:34:57;;;;;;;4.03;3.73;;;16.60;58.90;17.40;101267.00;;;;5011321;28;20199;-58
2023/04/10 02:37:24;;;;;;;4.00;3.70;;;16.60;58.90;17.40;101263.00;;;;5009936;28;20172;-59
2023/04/10 02:39:50;;;;;;;3.90;3.60;;;16.60;58.90;17.40;101262.00;;;;5011232;28;20208;-57
2023/04/10 02:42:16;;;;;;;4.10;3.80;;;16.60;58.90;17.30;101270.00;;;;5010329;28;20208;-58
2023/04/10 02:44:41;;;;;;;3.50;3.30;;;16.50;58.90;17.40;101276.00;;;;5013994;28;20262;-60
2023/04/10 02:47:07;;;;;;;3.83;3.53;;;16.50;58.90;17.40;101262.00;;;;5018301;28;20602;-58
2023/04/10 02:49:33;;;;;;;4.10;3.80;;;16.50;58.90;17.30;101277.00;;;;5018256;28;20169;-58
2023/04/10 02:52:00;;;;;;;4.00;3.70;;;16.50;58.90;17.30;101276.00;;;;5013868;28;20824;-58
2023/04/10 02:54:25;;;;;;;4.00;3.70;;;16.50;59.00;17.30;101273.00;;;;5011500;28;20191;-59
2023/04/10 02:56:51;;;;;;;3.70;3.40;;;16.50;58.90;17.30;101266.00;;;;5011782;28;20793;-58
2023/04/10 02:59:17;;;;;;;3.80;3.50;;;16.50;58.90;17.30;101262.00;;;;5011495;28;20172;-59
2023/04/10 03:01:44;;;;;;;4.20;3.90;;;16.50;58.80;17.30;101267.00;;;;5011310;28;20175;-57
2023/04/10 03:04:10;;;;;;;4.27;3.97;;;16.50;58.90;17.30;101261.00;;;;5010965;28;20215;-58
2023/04/10 03:06:36;;;;;;;4.17;3.80;;;16.50;58.90;17.20;101259.00;;;;5010829;28;20658;-60
2023/04/10 03:09:01;;;;;;;3.77;3.57;;;16.40;58.70;17.20;101261.00;;;;5011251;28;20180;-57
2023/04/10 03:11:27;;;;;;;3.93;3.63;;;16.50;58.80;17.20;101243.00;;;;5011193;28;20199;-58
2023/04/10 03:13:53;;;;;;;3.87;3.57;;;16.40;58.80;17.20;101250.00;;;;5010313;28;20663;-60
2023/04/10 03:16:19;;;;;;;3.73;3.43;;;16.40;58.90;17.20;101247.00;;;;5010584;28;20181;-60
2023/04/10 03:18:45;;;;;;;3.97;3.67;;;16.40;58.90;17.10;101251.00;;;;5010652;28;20550;-59
2023/04/10 03:21:11;;;;;;;3.80;3.50;;;16.40;58.90;17.10;101247.00;;;;5010386;28;20697;-58
2023/04/10 03:23:36;;;;;;;4.00;3.70;;;16.40;58.90;17.10;101247.00;;;;5010357;28;20255;-58
2023/04/10 03:26:04;;;;;;;3.90;3.60;;;16.40;58.80;17.10;101244.00;;;;5022404;28;20227;-60
2023/04/10 03:28:31;;;;;;;3.87;3.57;;;16.40;58.80;17.10;101239.00;;;;5038956;28;20172;-59
2023/04/10 03:30:57;;;;;;;4.03;3.73;;;16.40;58.70;17.10;101231.00;;;;5011366;28;20191;-59
2023/04/10 03:33:23;;;;;;;4.10;3.77;;;16.40;58.70;17.10;101220.00;;;;5012094;28;20211;-56
2023/04/10 03:35:49;;;;;;;3.97;3.67;;;16.30;58.70;17.10;101220.00;;;;5017693;28;20579;-59
2023/04/10 03:38:15;;;;;;;4.70;3.70;;;16.30;58.90;17.10;101215.00;;;;5019604;28;20184;-59
2023/04/10 03:40:40;;;;;;;4.30;3.90;;;16.40;59.10;17.10;101216.00;;;;5041648;28;20691;-59
2023/04/10 03:43:06;;;;;;;5.13;3.70;;;16.30;58.90;17.10;101213.00;;;;5039290;28;20175;-56
2023/04/10 03:45:33;;;;;;;6.83;3.93;;;16.30;58.90;17.10;101217.00;;;;5031049;28;20195;-56
2023/04/10 03:47:59;;;;;;;3.80;3.50;;;16.30;58.80;17.10;101206.00;;;;5031494;28;20194;-58
2023/04/10 03:50:24;;;;;;;4.10;3.80;;;16.30;58.80;17.10;101218.00;;;;5029691;28;20210;-57
2023/04/10 03:52:51;;;;;;;5.67;3.97;;;16.30;58.60;17.10;101214.00;;;;5030540;28;20230;-56
2023/04/10 03:55:17;;;;;;;5.67;3.80;;;16.30;58.60;17.10;101200.00;;;;5029235;28;20188;-59
2023/04/10 03:57:45;;;;;;;4.37;4.00;;;16.20;58.60;17.10;101187.00;;;;5029419;28;20606;-57
2023/04/10 04:00:12;;;;;;;4.40;3.80;;;16.20;58.60;17.10;101201.00;;;;5030210;28;20170;-58
2023/04/10 04:02:38;;;;;;;4.10;3.80;;;16.20;58.40;17.10;101201.00;;;;5012028;28;20657;-55
2023/04/10 04:05:04;;;;;;;4.90;3.97;;;16.20;58.30;17.10;101186.00;;;;5029212;28;20195;-56
2023/04/10 04:07:30;;;;;;;4.10;3.80;;;16.20;58.30;17.10;101200.00;;;;5012595;28;20175;-57
2023/04/10 04:09:56;;;;;;;4.50;4.10;;;16.30;58.20;17.00;101203.00;;;;5030308;28;20313;-56
2023/04/10 04:12:21;;;;;;;4.87;4.43;;;16.20;58.10;17.00;101195.00;;;;5030339;28;20232;-56
2023/04/10 04:14:47;;;;;;;7.53;4.40;;;16.20;58.00;17.00;101194.00;;;;5029574;28;20840;-57
2023/04/10 04:17:13;;;;;;;4.60;4.20;;;16.20;58.00;17.00;101186.00;;;;5029697;28;20171;-57
2023/04/10 04:19:39;;;;;;;5.87;4.47;;;16.20;57.90;17.00;101181.00;;;;5028238;28;20171;-57
2023/04/10 04:22:04;;;;;;;4.77;4.37;;;16.20;58.10;17.00;101181.00;;;;5030017;28;20206;-56
2023/04/10 04:24:30;;;;;;;6.57;4.10;;;16.10;57.80;17.00;101188.00;;;;5030102;28;20198;-57
2023/04/10 04:26:56;;;;;;;8.20;4.43;;;16.10;57.80;17.00;101195.00;;;;5029745;28;20779;-57
2023/04/10 04:29:22;;;;;;;9.47;5.00;;;16.10;57.80;16.90;101199.00;;;;5030037;28;20171;-57
2023/04/10 04:31:47;;;;;;;10.77;5.30;;;16.10;57.70;16.90;101195.00;;;;5030503;28;20210;-57
2023/04/10 04:34:13;;;;;;;8.50;5.23;;;16.10;57.80;16.90;101194.00;;;;5030930;28;20191;-57
2023/04/10 04:36:39;;;;;;;5.57;4.80;;;16.10;57.70;16.90;101194.00;;;;5031611;28;20170;-57
2023/04/10 04:39:05;;;;;;;8.90;4.97;;;16.10;57.60;16.90;101191.00;;;;5031355;28;20241;-57
2023/04/10 04:41:31;;;;;;;6.43;4.83;;;16.10;57.60;16.90;101194.00;;;;5029227;28;20186;-60
2023/04/10 04:43:58;;;;;;;8.13;5.20;;;16.10;57.50;16.90;101186.00;;;;5016463;28;20179;-58
2023/04/10 04:46:24;;;;;;;8.43;5.07;;;16.00;57.50;16.90;101193.00;;;;5030203;28;20163;-57
2023/04/10 04:48:50;;;;;;;7.07;4.93;;;16.00;57.30;16.90;101181.00;;;;5029983;28;20810;-57
2023/04/10 04:51:15;;;;;;;5.57;5.00;;;16.00;57.40;16.90;101179.00;;;;5029835;28;20527;-59
2023/04/10 04:53:41;;;;;;;6.67;4.60;;;16.00;57.40;16.80;101186.00;;;;5029510;28;20171;-57
2023/04/10 04:56:07;;;;;;;7.87;4.87;;;16.00;57.30;16.80;101181.00;;;;5029239;28;20179;-57
2023/04/10 04:58:33;;;;;;;7.17;4.83;;;16.00;57.40;16.80;101188.00;;;;5029138;28;20233;-59
2023/04/10 05:00:59;;;;;;;7.30;4.73;;;16.00;57.40;16.80;101183.00;;;;5028677;28;20171;-57
2023/04/10 05:03:27;;;;;;;9.53;5.07;;;16.00;57.40;16.80;101188.00;;;;5028423;28;20210;-58
2023/04/10 05:05:53;;;;;;;7.53;5.30;;;16.00;57.60;16.80;101179.00;;;;5028033;28;20661;-57
2023/04/10 05:08:19;;;;;;;9.40;5.03;;;16.00;57.60;16.80;101184.00;;;;5029059;28;20173;-57
2023/04/10 05:10:45;;;;;;;7.53;4.67;;;16.00;57.70;16.80;101188.00;;;;5029352;28;20195;-56
2023/04/10 05:13:11;;;;;;;6.77;4.80;;;16.00;58.30;16.80;101182.00;;;;5028893;28;20209;-56
2023/04/10 05:15:36;;;;;;;8.03;4.43;;;16.00;57.70;16.80;101182.00;;;;5029243;28;20680;-56
2023/04/10 05:18:02;;;;;;;5.00;4.50;;;15.90;57.60;16.80;101186.00;;;;5028954;28;20799;-57
2023/04/10 05:20:28;;;;;;;5.90;4.83;;;16.00;57.70;16.80;101182.00;;;;5029504;28;20209;-57
2023/04/10 05:22:54;;;;;;;5.20;4.70;;;16.00;57.70;16.80;101187.00;;;;5036095;28;20230;-56
2023/04/10 05:25:20;;;;;;;5.57;4.27;;;15.90;57.60;16.80;101191.00;;;;5061849;28;20206;-55
2023/04/10 05:27:45;;;;;;;5.90;4.53;;;15.90;57.60;16.80;101194.00;;;;5031673;28;20179;-56
2023/04/10 05:30:11;;;;;;;5.17;4.43;;;15.90;57.60;16.80;101189.00;;;;5032143;28;20544;-56
2023/04/10 05:32:37;;;;;;;5.83;4.53;;;15.90;57.60;16.70;101193.00;;;;5031291;28;20207;-56
2023/04/10 05:35:03;;;;;;;5.43;4.20;;;15.90;57.70;16.70;101144.00;;;;5031940;28;20700;-55
2023/04/10 05:37:29;;;;;;;4.73;4.27;;;15.90;57.80;16.70;101201.00;;;;5041972;28;20170;-59
2023/04/10 05:39:54;;;;;;;5.43;4.57;;;15.90;57.80;16.70;101189.00;;;;5044090;28;20175;-57
2023/04/10 05:42:20;;;;;;;4.97;4.40;;;15.90;57.80;16.70;101198.00;;;;5029522;28;20663;-57
2023/04/10 05:44:46;;;;;;;6.03;4.63;;;15.80;57.80;16.70;101197.00;;;;5029207;28;20281;-55
2023/04/10 05:47:12;;;;;;;6.63;4.63;;;15.80;57.80;16.70;101200.00;;;;5029195;28;20748;-56
2023/04/10 05:49:37;;;;;;;5.10;4.60;;;15.80;57.80;16.70;101198.00;;;;5028894;28;20178;-56
2023/04/10 05:52:03;;;;;;;5.67;4.50;;;15.80;57.90;16.70;101196.00;;;;5029274;28;20269;-56
2023/04/10 05:54:29;;;;;;;5.33;4.43;;;15.80;57.90;16.70;101202.00;;;;5028830;28;20324;-58
2023/04/10 05:56:55;;;;;;;5.00;4.27;;;15.80;57.90;16.70;101199.00;;;;5029877;28;20171;-59
2023/04/10 05:59:21;;;;;;;5.40;4.77;;;15.80;57.80;16.70;101186.00;;;;5028703;28;20627;-56
2023/04/10 06:01:46;;;;;;;4.83;4.30;;;15.80;57.90;16.70;101197.00;;;;5029205;28;20167;-55
2023/04/10 06:04:12;;;;;;;6.60;4.30;;;15.80;57.90;16.40;101181.00;;;;5028950;28;20330;-56
2023/04/10 06:06:38;;;;;;;5.53;4.73;;;15.80;58.00;16.70;101194.00;;;;5028912;28;20179;-57
2023/04/10 06:09:04;;;;;;;6.00;4.43;;;15.70;57.80;16.70;101193.00;;;;5028771;28;20553;-56
2023/04/10 06:11:29;;;;;;;4.63;4.23;;;15.80;58.00;16.60;101197.00;;;;5028966;28;20195;-57
2023/04/10 06:13:55;;;;;;;4.97;4.47;;;15.80;58.00;16.60;101192.00;;;;5028675;28;20175;-59
2023/04/10 06:16:21;;;;;;;4.80;4.03;;;15.80;58.00;16.60;101191.00;;;;5028891;28;20167;-58
2023/04/10 06:18:46;;;;;;;4.87;4.37;;;15.80;58.00;16.60;101185.00;;;;5028609;28;20202;-56
2023/04/10 06:21:13;;;;;;;4.97;4.40;;;15.70;57.80;16.60;101181.00;;;;5029193;28;20251;-57
2023/04/10 06:23:39;;;;;;;4.53;3.97;;;15.70;57.80;16.60;101181.00;;;;5028681;28;20171;-58
2023/04/10 06:26:05;;;;;;;4.60;4.20;;;15.70;57.80;16.60;101184.00;;;;5031934;28;20615;-59
2023/04/10 06:28:31;;;;;;;4.87;4.10;;;15.70;57.80;16.60;101185.00;;;;5030956;28;20298;-56
2023/04/10 06:30:57;;;;;;;4.77;4.33;;;15.70;57.80;16.60;101175.00;;;;5032502;28;20179;-56
2023/04/10 06:33:22;;;;;;;4.73;4.33;;;15.70;57.80;16.60;101172.00;;;;5032111;28;20673;-55
2023/04/10 06:35:50;;;;;;;4.43;4.03;;;15.70;57.80;16.60;101186.00;;;;5032350;28;20569;-58
2023/04/10 06:38:16;;;;;;;4.43;4.03;;;15.70;57.80;16.60;101176.00;;;;5032278;28;20316;-56
2023/04/10 06:40:41;;;;;;;4.60;4.20;;;15.70;57.80;16.60;101183.00;;;;5033382;28;20175;-56
2023/04/10 06:43:07;;;;;;;4.63;4.20;;;15.70;57.80;16.50;101187.00;;;;5033416;28;20182;-55
2023/04/10 06:45:33;;;;;;;5.30;4.20;;;15.70;57.80;16.50;101183.00;;;;5033874;28;20199;-57
2023/04/10 06:47:59;;;;;;;4.60;4.30;;;15.70;57.80;16.50;101189.00;;;;5033671;28;20178;-57
2023/04/10 06:50:24;;;;;;;4.97;4.33;;;15.70;57.80;16.50;101115.00;;;;5032991;28;20167;-57
2023/04/10 06:52:52;;;;;;;4.90;4.20;;;15.70;57.80;16.50;101200.00;;;;5032067;28;20219;-57
2023/04/10 06:55:17;;;;;;;4.20;3.90;;;15.70;57.80;16.50;101193.00;;;;5039008;28;20206;-56
2023/04/10 06:57:44;;;;;;;5.53;4.10;;;15.70;57.80;16.50;101207.00;;;;5037728;28;20167;-57
2023/04/10 07:00:10;;;;;;;5.27;4.77;;;15.70;57.80;16.50;101193.00;;;;5027445;28;20180;-58
2023/04/10 07:02:36;;;;;;;4.40;4.00;;;15.60;58.10;16.50;101192.00;;;;5026462;28;20183;-57
2023/04/10 07:05:02;;;;;;;5.70;4.30;;;15.70;58.50;16.50;101183.00;;;;5031623;28;20617;-58
2023/04/10 07:07:28;;;;;;;4.57;4.17;;;15.70;58.60;16.50;101182.00;;;;5031221;28;20179;-57
2023/04/10 07:09:53;;;;;;;4.33;3.93;;;15.70;58.50;16.50;101190.00;;;;5031383;28;20652;-57
2023/04/10 07:12:19;;;;;;;4.80;4.30;;;15.70;58.50;16.50;101174.00;;;;5031435;28;20199;-55
2023/04/10 07:14:45;;;;;;;5.33;4.40;;;15.70;58.50;16.50;101183.00;;;;5031144;28;20201;-56
2023/04/10 07:17:11;;;;;;;4.97;4.47;;;15.70;58.70;16.50;101176.00;;;;5030772;28;20179;-56
2023/04/10 07:19:37;;;;;;;5.30;3.93;;;15.70;58.70;16.50;101167.00;;;;5030416;28;20673;-57
2023/04/10 07:22:02;;;;;;;4.80;4.33;;;15.80;58.80;16.60;101174.00;;;;5033401;28;20167;-57
2023/04/10 07:24:30;;;;;;;6.50;4.40;;;15.80;58.80;16.60;101163.00;;;;5040293;28;20223;-57
2023/04/10 07:26:56;;;;;;;5.27;3.97;;;15.90;58.80;16.60;101163.00;;;;5021751;28;20187;-57
2023/04/10 07:29:22;;;;;;;4.60;4.20;;;15.90;58.70;16.60;101153.00;;;;5017485;28;20168;-56
2023/04/10 07:31:48;;;;;;;4.33;3.70;;;15.90;58.70;16.70;101150.00;;;;5035821;28;20285;-56
2023/04/10 07:34:14;;;;;;;4.70;4.20;;;15.90;58.90;16.70;101146.00;;;;5035324;28;20206;-57
2023/04/10 07:36:39;;;;;;;4.50;4.10;;;16.00;59.10;16.70;101143.00;;;;5024955;28;20171;-57
2023/04/10 07:39:05;;;;;;;6.73;4.50;;;16.00;59.10;16.70;101148.00;;;;5045069;28;20178;-59
2023/04/10 07:41:31;;;;;;;6.17;4.37;;;16.00;59.10;16.70;101141.00;;;;5036843;28;20179;-58
2023/04/10 07:43:56;;;;;;;6.00;4.03;;;16.00;59.20;16.70;101143.00;;;;5031089;28;20190;-57
2023/04/10 07:46:22;;;;;;;9.53;4.30;;;16.00;59.20;16.80;101149.00;;;;5031518;28;20530;-57
2023/04/10 07:48:48;;;;;;;4.50;4.10;;;16.00;59.10;16.80;101136.00;;;;5030553;28;20818;-57
2023/04/10 07:51:14;;;;;;;9.07;4.07;;;16.00;59.10;16.80;101134.00;;;;5030587;28;20274;-57
2023/04/10 07:53:40;;;;;;;7.10;4.20;;;16.00;59.10;16.80;101136.00;;;;5031062;28;20202;-57
2023/04/10 07:56:07;;;;;;;4.23;3.83;;;16.00;59.10;16.80;101125.00;;;;5030649;28;20187;-59
2023/04/10 07:58:33;;;;;;;5.23;4.47;;;16.00;59.10;16.80;101127.00;;;;5029611;28;20605;-57
2023/04/10 08:00:58;;;;;;;5.40;3.83;;;16.00;59.10;16.80;101125.00;;;;5030611;28;20172;-59
2023/04/10 08:03:25;;;;;;;5.80;4.00;;;16.00;59.10;16.80;101125.00;;;;5030663;28;20167;-57
2023/04/10 08:05:51;;;;;;;4.63;4.23;;;16.00;59.80;16.60;101120.00;;;;5030659;28;20273;-57
2023/04/10 08:08:16;;;;;;;4.27;3.93;;;16.00;59.10;16.80;101113.00;;;;5030231;28;20258;-57
2023/04/10 08:10:42;;;;;;;4.57;4.17;;;16.00;59.10;16.80;101113.00;;;;5029824;28;20175;-57
2023/04/10 08:13:08;;;;;;;4.40;4.00;;;16.00;59.10;16.80;101112.00;;;;5030252;28;20199;-57
2023/04/10 08:15:34;;;;;;;5.23;4.20;;;16.00;59.10;16.90;101036.00;;;;5029983;28;20673;-56
2023/04/10 08:18:00;;;;;;;4.53;4.13;;;16.00;59.10;16.90;101122.00;;;;5029543;28;20178;-57
2023/04/10 08:20:26;;;;;;;4.73;4.13;;;16.10;59.10;16.90;101117.00;;;;5030373;28;20516;-58
2023/04/10 08:22:53;;;;;;;4.30;3.90;;;16.00;59.10;16.90;101111.00;;;;5033585;28;20189;-57
2023/04/10 08:25:18;;;;;;;4.30;3.90;;;16.00;59.10;16.90;101108.00;;;;5027484;28;20194;-57
2023/04/10 08:27:44;;;;;;;4.20;3.90;;;16.00;59.10;16.90;101104.00;;;;5029507;28;20202;-56
2023/04/10 08:30:10;;;;;;;4.50;4.10;;;16.10;59.10;16.90;101091.00;;;;5029936;28;20738;-57
2023/04/10 08:32:37;;;;;;;4.80;3.93;;;16.10;59.10;16.90;101100.00;;;;5029800;28;20246;-56
2023/04/10 08:35:04;;;;;;;4.10;3.70;;;16.10;59.10;16.90;101094.00;;;;5029052;28;20551;-57
2023/04/10 08:37:29;;;;;;;4.53;4.13;;;16.10;59.10;16.90;101100.00;;;;5028974;28;20173;-55
2023/04/10 08:39:55;;;;;;;4.30;3.90;;;16.00;59.00;16.90;101086.00;;;;5023559;28;20183;-58
2023/04/10 08:42:21;;;;;;;4.77;3.90;;;16.10;59.30;16.90;101080.00;;;;5023937;28;20175;-57
2023/04/10 08:44:49;;;;;;;4.83;4.20;;;16.10;59.60;16.90;101092.00;;;;5028534;28;20842;-56
2023/04/10 08:47:14;;;;;;;5.37;4.00;;;16.10;59.90;16.90;101076.00;;;;5029197;28;20617;-55
2023/04/10 08:49:48;;;;;;;4.30;3.90;;;16.20;60.80;16.90;101074.00;;;;5028123;28;20203;-56
2023/04/10 08:52:16;;;;;;;5.87;4.07;;;16.10;60.90;16.90;101070.00;;;;5027982;28;20672;-58
2023/04/10 08:54:43;;;;;;;6.90;3.90;;;16.10;60.90;16.90;101070.00;;;;5025049;28;20207;-55
2023/04/10 08:57:10;;;;;;;4.30;3.90;;;16.10;60.90;16.90;101058.00;;;;5027627;28;20174;-56
2023/04/10 08:59:35;;;;;;;4.53;3.93;;;16.10;61.10;16.90;101066.00;;;;5019715;28;20175;-56
2023/04/10 09:02:02;;;;;;;5.33;3.83;;;16.20;61.00;17.00;101048.00;;;;5020852;28;20175;-56
2023/04/10 09:04:27;;;;;;;4.30;4.00;;;16.20;61.10;17.00;101042.00;;;;5022592;28;20195;-56
2023/04/10 09:06:53;;;;;;;5.50;3.93;;;16.20;61.10;17.00;101050.00;;;;5027823;28;20185;-56
2023/04/10 09:09:19;;;;;;;4.40;4.00;;;16.20;61.10;17.00;101039.00;;;;5028822;28;20194;-56
2023/04/10 09:11:51;;;;;;;4.37;3.83;;;16.20;60.80;17.00;101033.00;;;;5028672;28;20199;-58
2023/04/10 09:14:21;;;;;;;3.93;3.63;;;16.20;61.20;17.00;101025.00;;;;5028733;28;20370;-57
2023/04/10 09:16:47;;;;;;;4.83;4.00;;;16.30;61.30;17.00;101022.00;;;;5028980;28;20835;-56
2023/04/10 09:19:12;;;;;;;4.80;3.87;;;16.20;61.50;17.00;101020.00;;;;5026609;28;20179;-58
2023/04/10 09:21:38;;;;;;;4.57;3.87;;;16.20;61.20;17.00;101020.00;;;;5028280;28;20215;-56
2023/04/10 09:24:04;;;;;;;4.60;3.77;;;16.30;61.10;17.10;101022.00;;;;5030414;28;20480;-59
2023/04/10 09:26:31;;;;;;;4.53;3.60;;;16.20;60.90;17.10;101016.00;;;;5047949;28;20217;-56
2023/04/10 09:29:02;;;;;;;4.13;3.80;;;16.20;60.70;17.10;101003.00;;;;5027901;28;20175;-57
2023/04/10 09:31:33;;;;;;;4.00;3.70;;;16.20;60.70;17.10;101017.00;;;;5028407;28;20175;-56
2023/04/10 09:34:21;;;;;;;4.63;3.63;;;16.20;60.50;17.10;101020.00;;;;5028058;28;20171;-57
2023/04/10 09:37:02;;;;;;;4.43;3.67;;;16.10;60.20;17.10;101015.00;;;;5028302;28;20261;-59
2023/04/10 09:39:41;;;;;;;4.00;3.70;;;16.20;60.00;17.10;101022.00;;;;5042195;28;20178;-55
2023/04/10 09:42:08;;;;;;;3.93;3.60;;;16.20;59.90;17.10;101031.00;;;;5040074;28;20206;-56
2023/04/10 09:44:36;;;;;;;3.93;3.63;;;16.20;59.80;17.10;101025.00;;;;5028998;28;20607;-57
2023/04/10 09:47:20;;;;;;;4.10;3.70;;;16.20;59.70;17.10;101016.00;;;;5027960;28;20175;-56
2023/04/10 09:49:54;;;;;;;3.90;3.60;;;16.20;59.70;17.10;101021.00;;;;5028690;28;20236;-58
2023/04/10 09:52:30;;;;;;;6.63;3.57;;;16.30;59.80;17.10;101004.00;;;;5029423;28;20207;-56
2023/04/10 09:54:58;;;;;;;4.97;3.53;;;16.30;59.80;17.10;101000.00;;;;5026206;28;20214;-56
2023/04/10 09:57:26;;;;;;;4.23;3.47;;;16.30;59.70;17.10;100999.00;;;;5028821;28;20182;-57
2023/04/10 10:00:04;;;;;;;6.20;3.43;;;16.30;59.80;17.20;100996.00;;;;5030355;28;20304;-57
2023/04/10 10:02:30;;;;;;;10.00;3.73;;;16.30;59.70;17.10;101000.00;;;;5031514;28;20167;-56
2023/04/10 10:04:57;;;;;;;7.90;3.50;;;16.30;60.00;17.20;101002.00;;;;5023827;28;20199;-56
2023/04/10 10:07:22;;;;;;;3.70;3.37;;;16.30;60.80;17.20;101004.00;;;;5021485;28;20714;-57
2023/04/10 10:09:50;;;;;;;5.70;3.37;;;16.30;60.70;17.20;100991.00;;;;5013427;28;20262;-56
2023/04/10 10:12:22;;;;;;;7.30;3.50;;;16.40;61.00;17.20;100981.00;;;;5011814;28;20290;-56
2023/04/10 10:15:17;;;;;;;4.83;3.40;;;16.40;62.20;17.30;100977.00;;;;5013289;28;20198;-57
2023/04/10 10:18:08;;;;;;;5.60;3.30;;;16.40;61.70;17.20;100977.00;;;;5026500;28;20635;-56
2023/04/10 10:20:34;;;;;;;3.70;3.40;;;16.40;61.50;17.20;100963.00;;;;4982240;28;20226;-57
2023/04/10 10:23:02;;;;;;;5.73;3.50;;;16.40;61.20;17.30;100966.00;;;;5010919;28;20179;-57
2023/04/10 10:25:27;;;;;;;3.83;3.10;;;16.40;61.20;17.30;100964.00;;;;5011593;28;20758;-57
2023/04/10 10:27:53;;;;;;;3.67;3.23;;;16.40;61.00;17.30;100958.00;;;;5030233;28;20253;-57
2023/04/10 10:30:19;;;;;;;3.80;3.50;;;16.40;60.90;17.30;100941.00;;;;5029745;28;20186;-56
2023/04/10 10:32:46;;;;;;;5.13;3.47;;;16.40;60.90;17.30;100949.00;;;;5030014;28;20248;-56
2023/04/10 10:35:12;;;;;;;7.30;3.50;;;16.40;60.70;17.30;100936.00;;;;5032077;28;20203;-56
2023/04/10 10:37:38;;;;;;;3.57;3.27;;;16.40;60.70;17.40;100922.00;;;;5032192;28;20480;-57
2023/04/10 10:40:27;;;;;;;3.53;3.23;;;16.40;60.70;17.40;100929.00;;;;5033884;28;20295;-57
2023/04/10 10:42:55;;;;;;;4.03;3.37;;;16.40;60.60;17.40;100919.00;;;;5032390;28;20182;-57
2023/04/10 10:45:35;;;;;;;3.93;3.57;;;16.50;60.70;17.40;100916.00;;;;5032138;28;20206;-57
2023/04/10 10:48:01;;;;;;;4.43;3.37;;;16.40;60.50;17.40;100903.00;;;;5032424;28;20186;-57
2023/04/10 10:50:53;;;;;;;5.00;3.40;;;16.40;60.50;17.40;100890.00;;;;5035281;28;20175;-56